Time;durP1;ratioP1;P1;durP2;ratioP2;P2;SDS_P1;SDS_P2;PMS_P1;PMS_P2;Temp;Humidity;BMP_temperature;BMP_pressure;BME280_temperature;BME280_humidity;BME280_pressure;Samples;Min_cycle;Max_cycle;Signal;HPM_P1;HPM_P2
2022/03/16 00:02:27;;;;;;;41.63;16.27;;;;;;;;;;5034814;28;20053;-70
2022/03/16 00:04:59;;;;;;;39.33;15.90;;;;;;;;;;5035218;28;20065;-70
2022/03/16 00:07:26;;;;;;;35.72;15.90;;;;;;;;;;5035351;28;20053;-69
2022/03/16 00:09:54;;;;;;;38.92;16.90;;;;;;;;;;5035710;28;20049;-70
2022/03/16 00:12:25;;;;;;;41.95;16.35;;;;;;;;;;5035884;28;20059;-70
2022/03/16 00:14:53;;;;;;;40.85;16.02;;;;;;;;;;5029854;28;20403;-69
2022/03/16 00:17:21;;;;;;;38.78;15.93;;;;;;;;;;5036758;28;20049;-69
2022/03/16 00:19:49;;;;;;;40.22;16.25;;;;;;;;;;5034939;28;20080;-69
2022/03/16 00:22:18;;;;;;;39.00;15.63;;;;;;;;;;5033739;28;20068;-69
2022/03/16 00:24:47;;;;;;;39.22;16.52;;;;;;;;;;5032204;28;20297;-69
2022/03/16 00:27:16;;;;;;;36.42;15.90;;;;;;;;;;5031688;28;20098;-71
2022/03/16 00:29:44;;;;;;;42.53;16.70;;;;;;;;;;5032243;28;20053;-68
2022/03/16 00:32:15;;;;;;;38.00;16.40;;;;;;;;;;5032781;28;20161;-71
2022/03/16 00:34:43;;;;;;;42.90;17.40;;;;;;;;;;5034026;28;20201;-68
2022/03/16 00:37:10;;;;;;;39.83;16.15;;;;;;;;;;5032117;28;20121;-70
2022/03/16 00:39:39;;;;;;;46.88;16.83;;;;;;;;;;5030675;28;20140;-68
2022/03/16 00:42:08;;;;;;;45.47;19.60;;;;;;;;;;5034039;28;20049;-70
2022/03/16 00:44:36;;;;;;;42.05;18.85;;;;;;;;;;5034759;28;20205;-70
2022/03/16 00:47:06;;;;;;;36.92;16.17;;;;;;;;;;5034130;28;20088;-70
2022/03/16 00:49:34;;;;;;;40.53;17.42;;;;;;;;;;5031410;28;20131;-70
2022/03/16 00:52:03;;;;;;;46.00;18.90;;;;;;;;;;5029752;28;20461;-69
2022/03/16 00:54:31;;;;;;;43.60;17.50;;;;;;;;;;5028985;28;20051;-68
2022/03/16 00:57:02;;;;;;;40.33;16.50;;;;;;;;;;5036451;28;20056;-68
2022/03/16 00:59:30;;;;;;;40.30;16.90;;;;;;;;;;5031201;28;20478;-69
2022/03/16 01:02:00;;;;;;;47.20;19.38;;;;;;;;;;5031409;28;20061;-69
2022/03/16 01:04:30;;;;;;;40.72;18.77;;;;;;;;;;5033632;28;20057;-68
2022/03/16 01:06:59;;;;;;;35.33;15.95;;;;;;;;;;5034019;28;20071;-69
2022/03/16 01:09:26;;;;;;;44.15;17.90;;;;;;;;;;5034174;28;20481;-69
2022/03/16 01:11:54;;;;;;;41.70;17.48;;;;;;;;;;5033236;28;20764;-68
2022/03/16 01:14:23;;;;;;;48.03;19.73;;;;;;;;;;5034616;28;20046;-69
2022/03/16 01:16:51;;;;;;;46.55;19.80;;;;;;;;;;5032970;28;20056;-78
2022/03/16 01:19:19;;;;;;;45.70;18.55;;;;;;;;;;5034466;28;20041;-77
2022/03/16 01:21:47;;;;;;;56.45;20.52;;;;;;;;;;5035142;28;20048;-78
2022/03/16 01:24:14;;;;;;;46.00;20.38;;;;;;;;;;5033888;28;20273;-78
2022/03/16 01:26:42;;;;;;;44.28;20.10;;;;;;;;;;5036134;28;20189;-78
2022/03/16 01:29:09;;;;;;;53.03;19.92;;;;;;;;;;5035423;28;20064;-77
2022/03/16 01:31:38;;;;;;;51.15;20.63;;;;;;;;;;5036499;28;20051;-78
2022/03/16 01:34:06;;;;;;;48.80;19.38;;;;;;;;;;5032923;28;20063;-78
2022/03/16 01:36:34;;;;;;;43.35;19.13;;;;;;;;;;5032951;28;20072;-68
2022/03/16 01:39:03;;;;;;;49.65;22.58;;;;;;;;;;5034842;28;20614;-68
2022/03/16 01:41:31;;;;;;;47.22;20.13;;;;;;;;;;5029572;28;20053;-68
2022/03/16 01:44:00;;;;;;;45.72;22.02;;;;;;;;;;5034200;28;20084;-69
2022/03/16 01:46:27;;;;;;;59.40;22.33;;;;;;;;;;5032328;28;20136;-69
2022/03/16 01:48:57;;;;;;;50.15;21.95;;;;;;;;;;5029464;28;20049;-69
2022/03/16 01:51:26;;;;;;;53.55;23.58;;;;;;;;;;5032029;28;20053;-69
2022/03/16 01:53:54;;;;;;;53.05;24.58;;;;;;;;;;5028681;28;20076;-69
2022/03/16 01:56:25;;;;;;;51.78;23.45;;;;;;;;;;5038371;28;20248;-69
2022/03/16 01:58:54;;;;;;;53.65;23.45;;;;;;;;;;5034476;28;20084;-69
2022/03/16 02:01:25;;;;;;;58.85;23.48;;;;;;;;;;5033641;28;20048;-69
2022/03/16 02:03:52;;;;;;;55.33;25.75;;;;;;;;;;5030700;28;20055;-69
2022/03/16 02:06:23;;;;;;;59.40;25.83;;;;;;;;;;5034815;28;20049;-69
2022/03/16 02:08:51;;;;;;;56.40;24.15;;;;;;;;;;5035213;28;20060;-69
2022/03/16 02:11:21;;;;;;;63.90;25.33;;;;;;;;;;5036778;28;20127;-69
2022/03/16 02:13:50;;;;;;;57.58;23.95;;;;;;;;;;5036015;28;20053;-69
2022/03/16 02:16:18;;;;;;;61.05;25.77;;;;;;;;;;5038704;28;20126;-69
2022/03/16 02:18:47;;;;;;;51.42;24.13;;;;;;;;;;5037850;28;20079;-69
2022/03/16 02:21:16;;;;;;;63.75;25.42;;;;;;;;;;5036914;28;20106;-69
2022/03/16 02:23:45;;;;;;;61.83;26.02;;;;;;;;;;5038731;28;20087;-69
2022/03/16 02:26:13;;;;;;;71.03;27.45;;;;;;;;;;5035511;28;20067;-69
2022/03/16 02:28:40;;;;;;;71.53;27.58;;;;;;;;;;5031274;28;20141;-69
2022/03/16 02:31:08;;;;;;;63.85;25.42;;;;;;;;;;5037596;28;20048;-69
2022/03/16 02:33:36;;;;;;;67.88;26.52;;;;;;;;;;5038921;28;20457;-69
2022/03/16 02:36:09;;;;;;;69.80;27.67;;;;;;;;;;5036385;28;20056;-69
2022/03/16 02:38:36;;;;;;;67.38;26.08;;;;;;;;;;5034934;28;20095;-69
2022/03/16 02:41:06;;;;;;;73.80;27.08;;;;;;;;;;5033844;28;20053;-69
2022/03/16 02:43:34;;;;;;;66.78;25.83;;;;;;;;;;5037481;28;20053;-69
2022/03/16 02:46:03;;;;;;;72.45;27.52;;;;;;;;;;5033957;28;20076;-69
2022/03/16 02:48:31;;;;;;;79.93;29.92;;;;;;;;;;5035249;28;20061;-70
2022/03/16 02:50:59;;;;;;;73.45;28.20;;;;;;;;;;5038176;28;20057;-70
2022/03/16 02:53:27;;;;;;;73.68;30.38;;;;;;;;;;5034064;28;20110;-69
2022/03/16 02:55:55;;;;;;;82.15;30.80;;;;;;;;;;5037371;28;20048;-70
2022/03/16 02:58:29;;;;;;;68.03;28.75;;;;;;;;;;5036142;28;20629;-70
2022/03/16 03:00:57;;;;;;;73.88;28.35;;;;;;;;;;5036516;28;20053;-69
2022/03/16 03:03:25;;;;;;;78.80;29.52;;;;;;;;;;5034002;28;20106;-69
2022/03/16 03:05:55;;;;;;;79.20;26.83;;;;;;;;;;5037254;28;20475;-68
2022/03/16 03:08:26;;;;;;;77.53;28.20;;;;;;;;;;5033971;28;20084;-69
2022/03/16 03:10:53;;;;;;;85.53;30.83;;;;;;;;;;5035263;28;20053;-69
2022/03/16 03:13:24;;;;;;;75.00;30.35;;;;;;;;;;5035842;28;20049;-69
2022/03/16 03:15:53;;;;;;;85.15;30.02;;;;;;;;;;5034638;28;20053;-68
2022/03/16 03:18:22;;;;;;;88.32;32.88;;;;;;;;;;5037248;28;20044;-69
2022/03/16 03:20:50;;;;;;;97.43;34.28;;;;;;;;;;5032372;28;20077;-69
2022/03/16 03:23:19;;;;;;;94.18;35.58;;;;;;;;;;5035555;28;20044;-68
2022/03/16 03:25:50;;;;;;;87.97;33.33;;;;;;;;;;5034694;28;20048;-68
2022/03/16 03:28:19;;;;;;;91.78;31.45;;;;;;;;;;5035093;28;20048;-68
2022/03/16 03:30:48;;;;;;;98.18;32.25;;;;;;;;;;5036075;28;20048;-69
2022/03/16 03:33:19;;;;;;;89.75;32.00;;;;;;;;;;5037215;28;20064;-68
2022/03/16 03:35:49;;;;;;;77.07;31.42;;;;;;;;;;5033779;28;20506;-68
2022/03/16 03:38:19;;;;;;;86.22;31.70;;;;;;;;;;5035150;28;20041;-69
2022/03/16 03:40:47;;;;;;;81.60;31.48;;;;;;;;;;5038062;28;20059;-68
2022/03/16 03:43:15;;;;;;;82.15;30.63;;;;;;;;;;5037417;28;20045;-69
2022/03/16 03:45:43;;;;;;;82.95;30.92;;;;;;;;;;5034718;28;20450;-69
2022/03/16 03:48:15;;;;;;;85.10;32.65;;;;;;;;;;5031767;28;20401;-70
2022/03/16 03:50:43;;;;;;;77.57;31.13;;;;;;;;;;5034723;28;20323;-70
2022/03/16 03:53:11;;;;;;;80.30;31.58;;;;;;;;;;5029927;28;20144;-70
2022/03/16 03:55:41;;;;;;;92.75;33.35;;;;;;;;;;5035772;28;20130;-69
2022/03/16 03:58:09;;;;;;;90.50;32.15;;;;;;;;;;5035439;28;20045;-70
2022/03/16 04:00:37;;;;;;;78.60;33.50;;;;;;;;;;5032818;28;20536;-79
2022/03/16 04:03:07;;;;;;;81.63;30.88;;;;;;;;;;5038714;28;20148;-79
2022/03/16 04:05:36;;;;;;;85.47;31.95;;;;;;;;;;5038462;28;20505;-78
2022/03/16 04:08:04;;;;;;;79.90;32.75;;;;;;;;;;5035875;28;20053;-78
2022/03/16 04:10:32;;;;;;;71.50;27.58;;;;;;;;;;5036870;28;20102;-78
2022/03/16 04:12:59;;;;;;;72.82;27.40;;;;;;;;;;5036664;28;20063;-77
2022/03/16 04:15:27;;;;;;;79.60;30.35;;;;;;;;;;5036238;28;20056;-78
2022/03/16 04:17:55;;;;;;;73.70;28.30;;;;;;;;;;5035998;28;20503;-79
2022/03/16 04:20:23;;;;;;;82.70;29.15;;;;;;;;;;5037333;28;20052;-78
2022/03/16 04:22:53;;;;;;;68.82;28.48;;;;;;;;;;5033511;28;20055;-78
2022/03/16 04:25:20;;;;;;;75.20;29.35;;;;;;;;;;5037065;28;20057;-78
2022/03/16 04:27:48;;;;;;;60.70;28.05;;;;;;;;;;5035742;28;20049;-78
2022/03/16 04:30:16;;;;;;;59.92;24.98;;;;;;;;;;5036117;28;20072;-79
2022/03/16 04:32:44;;;;;;;73.10;30.02;;;;;;;;;;5033674;28;20061;-78
2022/03/16 04:35:12;;;;;;;66.28;26.50;;;;;;;;;;5036660;28;20266;-78
2022/03/16 04:37:39;;;;;;;62.67;26.02;;;;;;;;;;5035179;28;20172;-78
2022/03/16 04:40:10;;;;;;;71.20;28.65;;;;;;;;;;5034466;28;20112;-77
2022/03/16 04:42:38;;;;;;;58.03;25.48;;;;;;;;;;5038619;28;20045;-78
2022/03/16 04:45:08;;;;;;;58.60;25.52;;;;;;;;;;5035880;28;20060;-77
2022/03/16 04:47:36;;;;;;;59.83;26.42;;;;;;;;;;5038618;28;20411;-78
2022/03/16 04:50:05;;;;;;;65.97;26.80;;;;;;;;;;5034686;28;20057;-78
2022/03/16 04:52:32;;;;;;;71.55;29.20;;;;;;;;;;5031349;28;20115;-70
2022/03/16 04:55:00;;;;;;;73.72;28.33;;;;;;;;;;5033920;28;20065;-70
2022/03/16 04:57:29;;;;;;;60.45;25.13;;;;;;;;;;5035020;28;20044;-70
2022/03/16 04:59:57;;;;;;;67.50;27.92;;;;;;;;;;5034389;28;20527;-70
2022/03/16 05:02:24;;;;;;;59.72;25.35;;;;;;;;;;5034915;28;20079;-70
2022/03/16 05:04:53;;;;;;;63.97;27.65;;;;;;;;;;5034385;28;20080;-70
2022/03/16 05:07:21;;;;;;;67.88;27.27;;;;;;;;;;5031786;28;20059;-70
2022/03/16 05:09:49;;;;;;;56.78;24.58;;;;;;;;;;5037467;28;20072;-69
2022/03/16 05:12:17;;;;;;;61.90;26.58;;;;;;;;;;5038233;28;20148;-70
2022/03/16 05:14:47;;;;;;;61.05;25.77;;;;;;;;;;5036715;28;20180;-70
2022/03/16 05:17:15;;;;;;;58.65;25.65;;;;;;;;;;5033131;28;20142;-69
2022/03/16 05:19:48;;;;;;;58.25;25.50;;;;;;;;;;5032522;28;20045;-69
2022/03/16 05:22:16;;;;;;;61.85;28.40;;;;;;;;;;5033901;28;20092;-70
2022/03/16 05:24:44;;;;;;;58.45;25.50;;;;;;;;;;5039330;28;20075;-69
2022/03/16 05:27:12;;;;;;;65.25;26.40;;;;;;;;;;5034987;28;20053;-69
2022/03/16 05:29:40;;;;;;;61.35;26.67;;;;;;;;;;5034978;28;20106;-70
2022/03/16 05:32:09;;;;;;;59.75;28.17;;;;;;;;;;5033310;28;20048;-69
2022/03/16 05:34:37;;;;;;;58.20;26.52;;;;;;;;;;5031830;28;20044;-69
2022/03/16 05:37:05;;;;;;;60.25;28.55;;;;;;;;;;5033365;28;20053;-70
2022/03/16 05:39:33;;;;;;;60.42;27.65;;;;;;;;;;5033378;28;20056;-75
2022/03/16 05:42:01;;;;;;;60.40;26.02;;;;;;;;;;5031249;28;20575;-70
2022/03/16 05:44:34;;;;;;;60.47;28.02;;;;;;;;;;5037038;28;20049;-71
2022/03/16 05:47:05;;;;;;;67.47;28.48;;;;;;;;;;5034876;28;20063;-69
2022/03/16 05:49:34;;;;;;;58.97;27.90;;;;;;;;;;5036418;28;20515;-69
2022/03/16 05:52:02;;;;;;;66.88;30.13;;;;;;;;;;5040017;28;20076;-69
2022/03/16 05:54:29;;;;;;;63.20;28.45;;;;;;;;;;5033597;28;20136;-69
2022/03/16 05:56:58;;;;;;;65.78;28.40;;;;;;;;;;5040481;28;20057;-69
2022/03/16 05:59:26;;;;;;;64.15;28.73;;;;;;;;;;5042024;28;20253;-69
2022/03/16 06:01:54;;;;;;;61.90;29.23;;;;;;;;;;5038810;28;20136;-70
2022/03/16 06:04:22;;;;;;;56.95;25.77;;;;;;;;;;5040613;28;20077;-69
2022/03/16 06:06:50;;;;;;;62.10;29.23;;;;;;;;;;5038751;28;20060;-70
2022/03/16 06:09:19;;;;;;;64.38;27.92;;;;;;;;;;5039790;28;20053;-69
2022/03/16 06:11:46;;;;;;;61.53;25.48;;;;;;;;;;5035212;28;20591;-70
2022/03/16 06:14:14;;;;;;;64.75;27.13;;;;;;;;;;5037532;28;20139;-70
2022/03/16 06:16:41;;;;;;;59.05;29.35;;;;;;;;;;5037807;28;20085;-70
2022/03/16 06:19:09;;;;;;;62.83;29.83;;;;;;;;;;5036463;28;20038;-70
2022/03/16 06:21:37;;;;;;;59.05;31.98;;;;;;;;;;5034532;28;20064;-70
2022/03/16 06:24:08;;;;;;;57.88;24.92;;;;;;;;;;5038861;28;20138;-70
2022/03/16 06:26:36;;;;;;;45.85;22.40;;;;;;;;;;5034631;28;20084;-70
2022/03/16 06:29:03;;;;;;;58.15;27.95;;;;;;;;;;5035972;28;20128;-70
2022/03/16 06:31:31;;;;;;;60.45;26.48;;;;;;;;;;5038575;28;20513;-70
2022/03/16 06:33:59;;;;;;;69.53;31.00;;;;;;;;;;5040442;28;20057;-70
2022/03/16 06:36:27;;;;;;;59.63;25.67;;;;;;;;;;5039970;28;20057;-69
2022/03/16 06:38:57;;;;;;;58.45;28.23;;;;;;;;;;5041893;28;20049;-69
2022/03/16 06:41:27;;;;;;;73.35;30.20;;;;;;;;;;5038056;28;20059;-69
2022/03/16 06:43:54;;;;;;;66.55;30.55;;;;;;;;;;5037886;28;20147;-69
2022/03/16 06:46:28;;;;;;;53.15;24.73;;;;;;;;;;5037105;28;20071;-70
2022/03/16 06:48:56;;;;;;;;;;;;;;;;;;5035877;28;20192;-69
2022/03/16 06:51:26;;;;;;;65.55;30.92;;;;;;;;;;5038095;28;19960;-69
2022/03/16 06:53:54;;;;;;;67.25;31.13;;;;;;;;;;5034195;28;20489;-69
2022/03/16 06:56:22;;;;;;;65.63;29.88;;;;;;;;;;5039245;28;20412;-69
2022/03/16 06:58:51;;;;;;;56.13;27.10;;;;;;;;;;5038171;28;20231;-70
2022/03/16 07:01:19;;;;;;;64.53;28.00;;;;;;;;;;5035006;28;20302;-71
2022/03/16 07:03:48;;;;;;;74.68;31.40;;;;;;;;;;5037309;28;20588;-70
2022/03/16 07:06:15;;;;;;;53.10;25.42;;;;;;;;;;5035113;28;20049;-70
2022/03/16 07:08:46;;;;;;;66.97;29.17;;;;;;;;;;5037945;28;20094;-70
2022/03/16 07:11:16;;;;;;;56.97;24.48;;;;;;;;;;5035955;28;20135;-70
2022/03/16 07:16:43;;;;;;;57.25;27.73;;;;;;;;;;5035414;28;20049;-70
2022/03/16 07:19:11;;;;;;;59.08;26.83;;;;;;;;;;5037799;28;20041;-70
2022/03/16 07:21:39;;;;;;;59.67;28.38;;;;;;;;;;5038246;28;20498;-70
2022/03/16 07:24:14;;;;;;;47.85;22.10;;;;;;;;;;5036320;28;20136;-70
2022/03/16 07:26:42;;;;;;;56.42;26.58;;;;;;;;;;5037681;28;20051;-72
2022/03/16 07:29:11;;;;;;;56.75;24.50;;;;;;;;;;5036647;28;20091;-70
2022/03/16 07:31:39;;;;;;;55.95;25.55;;;;;;;;;;5035494;28;20515;-70
2022/03/16 07:34:07;;;;;;;57.47;26.20;;;;;;;;;;5029410;28;20263;-70
2022/03/16 07:36:35;;;;;;;55.17;24.77;;;;;;;;;;5033450;28;20102;-70
2022/03/16 07:39:03;;;;;;;51.65;25.23;;;;;;;;;;5036426;28;20150;-70
2022/03/16 07:41:31;;;;;;;52.03;24.55;;;;;;;;;;5036937;28;20045;-76
2022/03/16 07:43:59;;;;;;;44.55;23.33;;;;;;;;;;5031669;28;20222;-76
2022/03/16 07:46:31;;;;;;;50.28;23.48;;;;;;;;;;5038485;28;20085;-76
2022/03/16 07:48:58;;;;;;;48.67;22.42;;;;;;;;;;5038246;28;20140;-76
2022/03/16 07:51:26;;;;;;;49.38;22.45;;;;;;;;;;5033856;28;20108;-76
2022/03/16 07:53:54;;;;;;;43.35;20.60;;;;;;;;;;5030367;28;20057;-76
2022/03/16 07:56:22;;;;;;;48.63;23.40;;;;;;;;;;5035283;28;20049;-74
2022/03/16 07:58:51;;;;;;;49.00;23.63;;;;;;;;;;5027164;28;20281;-74
2022/03/16 08:01:18;;;;;;;44.67;22.20;;;;;;;;;;5032469;28;20126;-74
2022/03/16 08:03:49;;;;;;;44.13;19.58;;;;;;;;;;5035362;28;20574;-73
2022/03/16 08:06:17;;;;;;;39.53;20.17;;;;;;;;;;5036782;28;20320;-74
2022/03/16 08:08:49;;;;;;;38.85;19.95;;;;;;;;;;5035498;28;20055;-73
2022/03/16 08:11:16;;;;;;;40.90;19.48;;;;;;;;;;5034929;28;20086;-73
2022/03/16 08:13:45;;;;;;;38.78;20.20;;;;;;;;;;5033872;28;20116;-73
2022/03/16 08:16:16;;;;;;;46.67;21.95;;;;;;;;;;5034963;28;20454;-73
2022/03/16 08:18:44;;;;;;;39.08;19.90;;;;;;;;;;5035832;28;20052;-74
2022/03/16 08:21:16;;;;;;;43.63;21.35;;;;;;;;;;5030928;28;20056;-75
2022/03/16 08:23:43;;;;;;;37.92;19.52;;;;;;;;;;5034015;28;20152;-72
2022/03/16 08:26:12;;;;;;;37.22;20.15;;;;;;;;;;5037574;28;20318;-74
2022/03/16 08:28:41;;;;;;;42.38;18.45;;;;;;;;;;5033959;28;20181;-74
2022/03/16 08:31:12;;;;;;;33.17;15.63;;;;;;;;;;5030490;28;20111;-74
2022/03/16 08:33:40;;;;;;;34.85;17.45;;;;;;;;;;5029772;28;20057;-74
2022/03/16 08:36:08;;;;;;;30.48;15.98;;;;;;;;;;5031552;28;20573;-71
2022/03/16 08:38:38;;;;;;;38.53;16.30;;;;;;;;;;5025144;28;20065;-73
2022/03/16 08:41:10;;;;;;;26.25;15.32;;;;;;;;;;5034463;28;20545;-73
2022/03/16 08:43:38;;;;;;;30.08;15.88;;;;;;;;;;5034195;28;20138;-74
2022/03/16 08:46:06;;;;;;;30.98;15.98;;;;;;;;;;5033451;28;20049;-74
2022/03/16 08:48:34;;;;;;;33.45;16.98;;;;;;;;;;5036480;28;20068;-72
2022/03/16 08:51:07;;;;;;;32.15;15.73;;;;;;;;;;5037011;28;20064;-74
2022/03/16 11:13:29;;;;;;;19.02;10.48;;;;;;;15.30;47.23;102327.31;5103477;27;20399;-74
2022/03/16 11:16:01;;;;;;;18.17;11.55;;;;;;;13.80;51.00;102341.78;4990469;28;20160;-74
2022/03/16 11:18:30;;;;;;;23.63;12.37;;;;;;;13.08;53.08;102344.31;5024386;28;20060;-75
2022/03/16 11:21:04;;;;;;;21.13;11.18;;;;;;;13.19;53.48;102342.91;5018519;28;20052;-75
2022/03/16 11:26:27;;;;;;;21.25;10.95;;;;;;;12.67;55.26;102351.06;5031550;28;20253;-75
2022/03/16 11:29:09;;;;;;;20.83;11.45;;;;;;;12.63;55.59;102341.31;5032169;28;20060;-75
2022/03/16 11:31:39;;;;;;;22.80;11.57;;;;;;;12.73;56.00;102346.88;5031119;28;20053;-76
2022/03/16 11:34:10;;;;;;;23.98;12.75;;;;;;;12.71;55.58;102359.09;5031347;28;20055;-77
2022/03/16 11:36:40;;;;;;;21.17;11.93;;;;;;;12.73;55.77;102360.03;5029425;28;20077;-75
2022/03/16 11:39:18;;;;;;;20.80;12.10;;;;;;;12.65;56.41;102350.13;5032123;28;20509;-75
2022/03/16 11:41:51;;;;;;;25.00;11.35;;;;;;;12.86;55.85;102341.97;5034212;28;20151;-75
2022/03/16 11:44:32;;;;;;;27.02;12.75;;;;;;;13.09;55.66;102333.84;5033959;28;20081;-75
2022/03/16 11:47:35;;;;;;;25.67;13.02;;;;;;;13.18;55.08;102330.59;5033337;28;20058;-74
2022/03/16 11:50:14;;;;;;;21.42;11.27;;;;;;;13.28;55.25;102322.06;5033467;28;20645;-74
2022/03/16 11:53:00;;;;;;;22.00;10.55;;;;;;;13.35;55.12;102328.38;5028464;28;20175;-73
2022/03/16 11:55:48;;;;;;;22.15;12.07;;;;;;;13.18;55.26;102325.31;5031786;28;20568;-76
2022/03/16 11:58:31;;;;;;;23.75;11.60;;;;;;;13.07;55.70;102332.00;5032586;28;20057;-75
2022/03/16 12:01:29;;;;;;;22.92;12.07;;;;;;;13.09;56.03;102333.84;5033720;28;20212;-75
2022/03/16 12:03:59;;;;;;;24.55;12.40;;;;;;;13.15;55.90;102338.38;5032866;28;20075;-74
2022/03/16 12:06:31;;;;;;;26.83;12.93;;;;;;;13.14;56.29;102339.22;5033459;28;20904;-74
2022/03/16 12:09:02;;;;;;;24.48;13.05;;;;;;;13.20;56.13;102328.88;5033822;28;20498;-74
2022/03/16 12:14:57;;;;;;;24.98;12.95;;;;;;;13.16;56.15;102321.75;5029878;28;20132;-73
2022/03/16 12:17:28;;;;;;;24.38;13.07;;;;;;;12.86;56.96;102327.06;5033768;28;20095;-76
2022/03/16 12:20:16;;;;;;;28.52;12.25;;;;;;;12.91;56.91;102324.53;5031815;28;20590;-75
2022/03/16 12:22:46;;;;;;;25.70;12.45;;;;;;;12.92;57.07;102311.41;5029640;28;20108;-73
2022/03/16 12:25:34;;;;;;;23.90;11.70;;;;;;;13.01;56.79;102303.75;5019612;28;20063;-75
2022/03/16 12:30:54;;;;;;;27.88;12.80;;;;;;;13.01;57.03;102303.75;5017845;28;20083;-74
2022/03/16 12:33:31;;;;;;;26.35;13.85;;;;;;;12.95;57.20;102300.06;5014791;28;20216;-77
2022/03/16 12:36:01;;;;;;;28.45;13.18;;;;;;;12.91;57.17;102295.56;5017677;28;20057;-75
2022/03/16 12:38:33;;;;;;;30.48;12.70;;;;;;;13.05;57.04;102291.56;5017991;28;20535;-75
2022/03/16 12:43:49;;;;;;;26.52;12.60;;;;;;;12.87;57.85;102281.44;5019719;28;20103;-74
2022/03/16 12:46:23;;;;;;;24.80;12.38;;;;;;;12.83;57.76;102278.69;5017792;28;20123;-77
2022/03/16 12:48:55;;;;;;;30.77;12.77;;;;;;;12.94;58.04;102271.97;5020323;28;20044;-77
2022/03/16 12:51:38;;;;;;;32.08;14.00;;;;;;;13.06;57.60;102270.53;5019287;28;20049;-76
2022/03/16 12:54:07;;;;;;;26.23;12.82;;;;;;;13.01;57.79;102256.34;5014019;28;20119;-75
2022/03/16 12:56:39;;;;;;;28.42;11.98;;;;;;;12.99;57.39;102255.44;5019008;28;21306;-75
2022/03/16 12:59:08;;;;;;;24.90;11.48;;;;;;;12.90;57.65;102255.19;5018291;28;20590;-75
2022/03/16 13:01:37;;;;;;;29.20;13.55;;;;;;;12.96;57.95;102255.34;5015506;28;20049;-74
2022/03/16 13:04:08;;;;;;;26.60;13.40;;;;;;;12.85;57.92;102243.66;5013679;28;20121;-75
2022/03/16 13:06:36;;;;;;;26.95;14.23;;;;;;;12.92;58.22;102239.44;5012102;28;20072;-75
2022/03/16 13:09:05;;;;;;;29.70;14.43;;;;;;;12.91;57.90;102237.66;5014913;28;20064;-74
2022/03/16 13:11:34;;;;;;;31.20;13.05;;;;;;;12.88;58.26;102225.28;5011041;28;20052;-74
2022/03/16 13:14:05;;;;;;;33.28;15.90;;;;;;;12.79;58.48;102219.78;5018368;28;20045;-76
2022/03/16 13:16:38;;;;;;;25.70;13.40;;;;;;;12.75;59.12;102218.81;5018315;28;20065;-74
2022/03/16 13:19:10;;;;;;;29.83;13.52;;;;;;;12.85;58.74;102205.91;5015501;28;20057;-75
2022/03/16 13:21:39;;;;;;;32.35;15.20;;;;;;;12.81;58.81;102201.41;5013983;28;20061;-75
2022/03/16 13:24:11;;;;;;;27.70;13.30;;;;;;;12.85;58.70;102198.00;5014108;28;20073;-75
2022/03/16 13:26:40;;;;;;;31.25;14.85;;;;;;;12.76;59.12;102196.00;5013063;28;20549;-76
2022/03/16 13:29:11;;;;;;;36.10;16.02;;;;;;;12.96;59.04;102192.16;5016082;28;20140;-74
2022/03/16 13:31:41;;;;;;;35.88;15.18;;;;;;;13.03;58.95;102187.94;5013842;28;20056;-74
2022/03/16 13:34:11;;;;;;;32.75;14.38;;;;;;;13.19;58.57;102178.69;5016309;28;20164;-74
2022/03/16 13:36:41;;;;;;;26.25;13.25;;;;;;;13.12;58.69;102174.09;5011092;28;20096;-74
2022/03/16 13:39:20;;;;;;;27.13;14.13;;;;;;;13.11;58.48;102175.84;5013543;28;20045;-74
2022/03/16 13:42:13;;;;;;;32.90;14.10;;;;;;;13.28;58.60;102181.53;5017396;28;20058;-74
2022/03/16 13:44:44;;;;;;;46.92;15.75;;;;;;;13.07;58.83;102179.25;5011054;28;20058;-75
2022/03/16 13:47:27;;;;;;;24.95;12.25;;;;;;;13.20;59.04;102175.19;5014904;28;20037;-74
2022/03/16 13:49:57;;;;;;;29.48;13.52;;;;;;;13.15;58.74;102176.78;5012080;28;20052;-75
2022/03/16 13:52:28;;;;;;;27.95;13.90;;;;;;;13.11;58.93;102170.56;5013501;28;20049;-75
2022/03/16 13:55:08;;;;;;;31.17;12.90;;;;;;;13.13;58.76;102168.84;5013463;28;20057;-74
2022/03/16 13:57:42;;;;;;;31.02;13.23;;;;;;;13.14;58.81;102159.22;5030127;28;20949;-75
2022/03/16 14:00:11;;;;;;;31.15;12.68;;;;;;;13.03;58.78;102149.31;5015527;28;20086;-75
2022/03/16 14:02:40;;;;;;;28.48;13.40;;;;;;;13.08;59.05;102144.16;5020559;28;20064;-75
2022/03/16 14:05:16;;;;;;;32.83;13.68;;;;;;;12.98;59.06;102142.16;5018063;28;20057;-74
2022/03/16 14:07:45;;;;;;;32.80;14.45;;;;;;;12.94;59.39;102130.66;5015395;28;20050;-75
2022/03/16 14:10:19;;;;;;;28.95;13.73;;;;;;;13.04;59.40;102122.13;5014211;28;20592;-74
2022/03/16 14:12:47;;;;;;;25.10;12.32;;;;;;;12.95;59.39;102111.38;5015827;28;20053;-75
2022/03/16 14:15:20;;;;;;;35.22;14.93;;;;;;;12.92;59.63;102124.47;5012377;28;20075;-75
2022/03/16 14:17:55;;;;;;;28.50;13.63;;;;;;;12.89;59.88;102105.06;5014094;28;20132;-74
2022/03/16 14:20:30;;;;;;;26.00;11.38;;;;;;;12.94;59.77;102098.16;5015092;28;20049;-74
2022/03/16 14:23:00;;;;;;;28.23;12.80;;;;;;;12.96;60.05;102093.81;5015173;28;20418;-74
2022/03/16 14:25:30;;;;;;;30.33;13.95;;;;;;;12.85;60.21;102084.78;5016449;28;20343;-75
2022/03/16 14:28:05;;;;;;;32.13;15.20;;;;;;;12.72;61.01;102091.50;5016882;28;20049;-76
2022/03/16 14:30:35;;;;;;;33.83;14.77;;;;;;;12.87;60.95;102088.34;5013776;28;20067;-75
2022/03/16 14:33:05;;;;;;;32.10;13.95;;;;;;;12.84;60.72;102086.53;5012429;28;20050;-76
2022/03/16 14:35:36;;;;;;;29.50;13.77;;;;;;;12.77;61.18;102089.88;5013715;28;20064;-75
2022/03/16 14:38:06;;;;;;;31.15;13.75;;;;;;;12.91;60.86;102087.56;5014264;28;20093;-75
2022/03/16 14:40:35;;;;;;;31.55;14.55;;;;;;;12.85;60.91;102076.88;5012133;28;20080;-75
2022/03/16 14:43:04;;;;;;;26.25;13.27;;;;;;;12.87;60.88;102083.06;5014761;28;20132;-76
2022/03/16 14:45:34;;;;;;;28.90;13.57;;;;;;;12.86;61.20;102084.81;5016400;28;20063;-76
2022/03/16 14:48:06;;;;;;;27.00;12.90;;;;;;;12.80;61.45;102083.78;5012801;28;20129;-76
2022/03/16 14:50:36;;;;;;;27.45;13.05;;;;;;;12.80;61.11;102087.31;5014426;28;20059;-76
2022/03/16 14:53:06;;;;;;;27.35;13.07;;;;;;;12.84;61.44;102085.63;5010161;28;20123;-76
2022/03/16 14:55:34;;;;;;;32.60;13.00;;;;;;;12.86;60.84;102076.03;5014124;28;20128;-77
2022/03/16 14:58:05;;;;;;;25.63;11.10;;;;;;;12.78;61.21;102078.47;5013256;28;20057;-76
2022/03/16 15:00:39;;;;;;;28.60;11.13;;;;;;;12.76;61.11;102078.44;5013432;28;20060;-75
2022/03/16 15:03:08;;;;;;;33.28;12.30;;;;;;;12.76;61.27;102073.19;5014012;28;20057;-75
2022/03/16 15:05:37;;;;;;;35.25;14.18;;;;;;;12.67;61.69;102064.16;5012899;28;20076;-76
2022/03/16 15:08:06;;;;;;;29.23;11.70;;;;;;;12.77;61.40;102072.31;5011674;28;20517;-76
2022/03/16 15:10:34;;;;;;;33.08;14.15;;;;;;;12.73;61.34;102070.47;5015818;28;20053;-75
2022/03/16 15:13:02;;;;;;;30.85;13.95;;;;;;;12.73;61.50;102065.22;5012830;28;20141;-76
2022/03/16 15:15:30;;;;;;;29.65;13.35;;;;;;;12.69;61.46;102060.72;5014937;28;20206;-76
2022/03/16 15:17:59;;;;;;;30.80;14.82;;;;;;;12.56;61.83;102058.66;5015454;28;20142;-75
2022/03/16 15:20:27;;;;;;;25.92;11.35;;;;;;;12.65;61.88;102064.13;5015285;28;20132;-76
2022/03/16 15:22:56;;;;;;;30.92;13.50;;;;;;;12.63;61.95;102060.56;5015081;28;20099;-77
2022/03/16 15:25:24;;;;;;;29.30;12.20;;;;;;;12.64;62.07;102062.34;5014160;28;20151;-76
2022/03/16 15:27:55;;;;;;;26.25;13.40;;;;;;;12.61;62.06;102046.50;5016606;28;20476;-76
2022/03/16 15:30:24;;;;;;;26.48;12.45;;;;;;;12.53;62.36;102042.78;5011714;28;20353;-78
2022/03/16 15:32:52;;;;;;;29.42;12.70;;;;;;;12.46;62.14;102043.50;5012073;28;20435;-75
2022/03/16 15:35:20;;;;;;;33.13;14.13;;;;;;;12.35;62.57;102042.34;5011177;28;20501;-76
2022/03/16 15:37:48;;;;;;;26.27;12.45;;;;;;;12.39;62.62;102041.59;5012795;28;20132;-75
2022/03/16 15:43:04;;;;;;;29.40;13.65;;;;;;;12.43;62.47;102046.97;5014545;28;20109;-76
2022/03/16 15:45:31;;;;;;;32.78;14.65;;;;;;;12.41;62.81;102039.88;5012507;28;20053;-76
2022/03/16 15:48:04;;;;;;;34.58;14.07;;;;;;;12.37;62.86;102041.53;5015679;28;20413;-76
2022/03/16 15:50:32;;;;;;;35.00;13.98;;;;;;;12.30;63.29;102055.41;5013700;28;20540;-76
2022/03/16 15:53:00;;;;;;;34.20;15.02;;;;;;;12.24;63.30;102065.75;5010529;28;20045;-76
2022/03/16 15:55:29;;;;;;;32.33;15.05;;;;;;;12.29;63.20;102068.50;5013522;28;20041;-76
2022/03/16 15:57:57;;;;;;;31.15;14.13;;;;;;;12.37;63.20;102066.97;5013465;28;20487;-76